sensor_id;sensor_type;location;lat;lon;timestamp;temperature;humidity
9486;DHT22;4781;48.776;9.200;2023-02-13T00:01:24;2.90;99.90
9486;DHT22;4781;48.776;9.200;2023-02-13T00:03:52;2.90;99.90
9486;DHT22;4781;48.776;9.200;2023-02-13T00:06:20;2.90;99.90
9486;DHT22;4781;48.776;9.200;2023-02-13T00:08:49;2.90;99.90
9486;DHT22;4781;48.776;9.200;2023-02-13T00:11:18;2.90;99.90
9486;DHT22;4781;48.776;9.200;2023-02-13T00:13:46;2.80;99.90
9486;DHT22;4781;48.776;9.200;2023-02-13T00:16:14;2.90;99.90
9486;DHT22;4781;48.776;9.200;2023-02-13T00:18:43;2.90;99.90
9486;DHT22;4781;48.776;9.200;2023-02-13T00:21:12;2.90;99.90
9486;DHT22;4781;48.776;9.200;2023-02-13T00:23:40;2.80;99.90
9486;DHT22;4781;48.776;9.200;2023-02-13T00:26:11;2.90;99.90
9486;DHT22;4781;48.776;9.200;2023-02-13T00:28:41;2.90;99.90
9486;DHT22;4781;48.776;9.200;2023-02-13T00:31:12;2.80;99.90
9486;DHT22;4781;48.776;9.200;2023-02-13T00:33:42;2.80;99.90
9486;DHT22;4781;48.776;9.200;2023-02-13T00:36:12;2.80;99.90
9486;DHT22;4781;48.776;9.200;2023-02-13T00:38:42;2.80;99.90
9486;DHT22;4781;48.776;9.200;2023-02-13T00:41:12;2.80;99.90
9486;DHT22;4781;48.776;9.200;2023-02-13T00:43:49;2.70;99.90
9486;DHT22;4781;48.776;9.200;2023-02-13T00:46:18;2.70;99.90
9486;DHT22;4781;48.776;9.200;2023-02-13T00:48:47;2.70;99.90
9486;DHT22;4781;48.776;9.200;2023-02-13T00:51:16;2.60;99.90
9486;DHT22;4781;48.776;9.200;2023-02-13T00:53:44;2.60;99.90
9486;DHT22;4781;48.776;9.200;2023-02-13T00:56:12;2.60;99.90
9486;DHT22;4781;48.776;9.200;2023-02-13T00:58:41;2.60;99.90
9486;DHT22;4781;48.776;9.200;2023-02-13T01:01:09;2.60;99.90
9486;DHT22;4781;48.776;9.200;2023-02-13T01:03:38;2.60;99.90
9486;DHT22;4781;48.776;9.200;2023-02-13T01:06:06;2.60;99.90
9486;DHT22;4781;48.776;9.200;2023-02-13T01:08:40;2.50;99.90
9486;DHT22;4781;48.776;9.200;2023-02-13T01:11:08;2.50;99.90
9486;DHT22;4781;48.776;9.200;2023-02-13T01:13:37;2.50;99.90
9486;DHT22;4781;48.776;9.200;2023-02-13T01:16:06;2.40;99.90
9486;DHT22;4781;48.776;9.200;2023-02-13T01:18:34;2.40;99.90
9486;DHT22;4781;48.776;9.200;2023-02-13T01:21:05;2.40;99.90
9486;DHT22;4781;48.776;9.200;2023-02-13T01:23:38;2.50;99.90
9486;DHT22;4781;48.776;9.200;2023-02-13T01:26:07;2.50;99.90
9486;DHT22;4781;48.776;9.200;2023-02-13T01:28:37;2.50;99.90
9486;DHT22;4781;48.776;9.200;2023-02-13T01:31:06;2.50;99.90
9486;DHT22;4781;48.776;9.200;2023-02-13T01:33:34;2.50;99.90
9486;DHT22;4781;48.776;9.200;2023-02-13T01:36:10;2.50;99.90
9486;DHT22;4781;48.776;9.200;2023-02-13T01:38:42;2.50;99.90
9486;DHT22;4781;48.776;9.200;2023-02-13T01:41:11;2.50;99.90
9486;DHT22;4781;48.776;9.200;2023-02-13T01:43:57;2.50;99.90
9486;DHT22;4781;48.776;9.200;2023-02-13T01:46:34;2.50;99.90
9486;DHT22;4781;48.776;9.200;2023-02-13T01:49:11;2.50;99.90
9486;DHT22;4781;48.776;9.200;2023-02-13T01:52:03;2.50;99.90
9486;DHT22;4781;48.776;9.200;2023-02-13T01:54:33;2.40;99.90
9486;DHT22;4781;48.776;9.200;2023-02-13T01:57:08;2.40;99.90
9486;DHT22;4781;48.776;9.200;2023-02-13T01:59:41;2.40;99.90
9486;DHT22;4781;48.776;9.200;2023-02-13T02:02:20;2.40;99.90
9486;DHT22;4781;48.776;9.200;2023-02-13T02:04:49;2.40;99.90
9486;DHT22;4781;48.776;9.200;2023-02-13T02:07:22;2.40;99.90
9486;DHT22;4781;48.776;9.200;2023-02-13T02:09:54;2.30;99.90
9486;DHT22;4781;48.776;9.200;2023-02-13T02:12:30;2.30;99.90
9486;DHT22;4781;48.776;9.200;2023-02-13T02:15:15;2.30;99.90
9486;DHT22;4781;48.776;9.200;2023-02-13T02:17:44;2.20;99.90
9486;DHT22;4781;48.776;9.200;2023-02-13T02:20:41;2.20;99.90
9486;DHT22;4781;48.776;9.200;2023-02-13T02:23:33;2.20;99.90
9486;DHT22;4781;48.776;9.200;2023-02-13T02:39:00;2.00;99.90
9486;DHT22;4781;48.776;9.200;2023-02-13T02:42:04;2.00;99.90
9486;DHT22;4781;48.776;9.200;2023-02-13T02:47:20;1.90;99.90
9486;DHT22;4781;48.776;9.200;2023-02-13T02:58:30;1.80;99.90
9486;DHT22;4781;48.776;9.200;2023-02-13T03:01:22;1.80;99.90
9486;DHT22;4781;48.776;9.200;2023-02-13T03:04:18;1.80;99.90
9486;DHT22;4781;48.776;9.200;2023-02-13T03:07:20;1.80;99.90
9486;DHT22;4781;48.776;9.200;2023-02-13T03:09:51;1.80;99.90
9486;DHT22;4781;48.776;9.200;2023-02-13T03:12:53;1.80;99.90
9486;DHT22;4781;48.776;9.200;2023-02-13T03:15:43;1.80;99.90
9486;DHT22;4781;48.776;9.200;2023-02-13T03:18:23;1.80;99.90
9486;DHT22;4781;48.776;9.200;2023-02-13T03:20:59;1.80;99.90
9486;DHT22;4781;48.776;9.200;2023-02-13T03:26:37;1.70;99.90
9486;DHT22;4781;48.776;9.200;2023-02-13T03:29:39;1.70;99.90
9486;DHT22;4781;48.776;9.200;2023-02-13T03:35:52;1.70;99.90
9486;DHT22;4781;48.776;9.200;2023-02-13T03:38:56;1.70;99.90
9486;DHT22;4781;48.776;9.200;2023-02-13T03:41:59;1.70;99.90
9486;DHT22;4781;48.776;9.200;2023-02-13T03:44:33;1.70;99.90
9486;DHT22;4781;48.776;9.200;2023-02-13T03:47:01;1.70;99.90
9486;DHT22;4781;48.776;9.200;2023-02-13T03:52:24;1.60;99.90
9486;DHT22;4781;48.776;9.200;2023-02-13T03:55:03;1.70;99.90
9486;DHT22;4781;48.776;9.200;2023-02-13T03:57:52;1.70;99.90
9486;DHT22;4781;48.776;9.200;2023-02-13T04:00:47;1.70;99.90
9486;DHT22;4781;48.776;9.200;2023-02-13T04:03:26;1.60;99.90
9486;DHT22;4781;48.776;9.200;2023-02-13T04:06:05;1.60;99.90
9486;DHT22;4781;48.776;9.200;2023-02-13T04:08:37;1.60;99.90
9486;DHT22;4781;48.776;9.200;2023-02-13T04:11:14;1.60;99.90
9486;DHT22;4781;48.776;9.200;2023-02-13T04:13:56;1.60;99.90
9486;DHT22;4781;48.776;9.200;2023-02-13T04:16:41;1.50;99.90
9486;DHT22;4781;48.776;9.200;2023-02-13T04:19:12;1.50;99.90
9486;DHT22;4781;48.776;9.200;2023-02-13T04:21:41;1.50;99.90
9486;DHT22;4781;48.776;9.200;2023-02-13T04:24:09;1.40;99.90
9486;DHT22;4781;48.776;9.200;2023-02-13T04:26:41;1.40;99.90
9486;DHT22;4781;48.776;9.200;2023-02-13T04:29:10;1.40;99.90
9486;DHT22;4781;48.776;9.200;2023-02-13T04:31:38;1.40;99.90
9486;DHT22;4781;48.776;9.200;2023-02-13T04:34:06;1.40;99.90
9486;DHT22;4781;48.776;9.200;2023-02-13T04:36:35;1.30;99.90
9486;DHT22;4781;48.776;9.200;2023-02-13T04:39:03;1.30;99.90
9486;DHT22;4781;48.776;9.200;2023-02-13T04:41:32;1.30;99.90
9486;DHT22;4781;48.776;9.200;2023-02-13T04:44:00;1.30;99.90
9486;DHT22;4781;48.776;9.200;2023-02-13T04:46:28;1.20;99.90
9486;DHT22;4781;48.776;9.200;2023-02-13T04:48:57;1.20;99.90
9486;DHT22;4781;48.776;9.200;2023-02-13T04:51:26;1.10;99.90
9486;DHT22;4781;48.776;9.200;2023-02-13T04:53:54;1.10;99.90
9486;DHT22;4781;48.776;9.200;2023-02-13T04:56:23;1.20;99.90
9486;DHT22;4781;48.776;9.200;2023-02-13T04:58:51;1.20;99.90
9486;DHT22;4781;48.776;9.200;2023-02-13T05:01:21;1.10;99.90
9486;DHT22;4781;48.776;9.200;2023-02-13T05:03:50;1.10;99.90
9486;DHT22;4781;48.776;9.200;2023-02-13T05:06:19;1.10;99.90
9486;DHT22;4781;48.776;9.200;2023-02-13T05:08:47;1.10;99.90
9486;DHT22;4781;48.776;9.200;2023-02-13T05:11:16;1.10;99.90
9486;DHT22;4781;48.776;9.200;2023-02-13T05:13:44;1.10;99.90
9486;DHT22;4781;48.776;9.200;2023-02-13T05:16:13;1.10;99.90
9486;DHT22;4781;48.776;9.200;2023-02-13T05:18:41;1.00;99.90
9486;DHT22;4781;48.776;9.200;2023-02-13T05:21:09;1.00;99.90
9486;DHT22;4781;48.776;9.200;2023-02-13T05:23:55;0.90;99.90
9486;DHT22;4781;48.776;9.200;2023-02-13T05:26:24;1.00;99.90
9486;DHT22;4781;48.776;9.200;2023-02-13T05:28:52;0.90;99.90
9486;DHT22;4781;48.776;9.200;2023-02-13T05:31:38;0.90;99.90
9486;DHT22;4781;48.776;9.200;2023-02-13T05:34:07;0.80;99.90
9486;DHT22;4781;48.776;9.200;2023-02-13T05:36:35;0.80;99.90
9486;DHT22;4781;48.776;9.200;2023-02-13T05:39:04;0.80;99.90
9486;DHT22;4781;48.776;9.200;2023-02-13T05:41:32;0.80;99.90
9486;DHT22;4781;48.776;9.200;2023-02-13T05:44:01;0.80;99.90
9486;DHT22;4781;48.776;9.200;2023-02-13T05:46:29;0.80;99.90
9486;DHT22;4781;48.776;9.200;2023-02-13T05:48:59;0.80;99.90
9486;DHT22;4781;48.776;9.200;2023-02-13T05:51:27;0.70;99.90
9486;DHT22;4781;48.776;9.200;2023-02-13T05:53:56;0.70;99.90
9486;DHT22;4781;48.776;9.200;2023-02-13T05:56:24;0.70;99.90
9486;DHT22;4781;48.776;9.200;2023-02-13T05:58:54;0.70;99.90
9486;DHT22;4781;48.776;9.200;2023-02-13T06:01:23;0.70;99.90
9486;DHT22;4781;48.776;9.200;2023-02-13T06:03:52;0.70;99.90
9486;DHT22;4781;48.776;9.200;2023-02-13T06:06:20;0.70;99.90
9486;DHT22;4781;48.776;9.200;2023-02-13T06:08:48;0.70;99.90
9486;DHT22;4781;48.776;9.200;2023-02-13T06:11:17;0.70;99.90
9486;DHT22;4781;48.776;9.200;2023-02-13T06:13:46;0.60;99.90
9486;DHT22;4781;48.776;9.200;2023-02-13T06:16:15;0.70;99.90
9486;DHT22;4781;48.776;9.200;2023-02-13T06:18:43;0.60;99.90
9486;DHT22;4781;48.776;9.200;2023-02-13T06:21:11;0.60;99.90
9486;DHT22;4781;48.776;9.200;2023-02-13T06:23:40;0.70;99.90
9486;DHT22;4781;48.776;9.200;2023-02-13T06:26:09;0.70;99.90
9486;DHT22;4781;48.776;9.200;2023-02-13T06:28:37;0.70;99.90
9486;DHT22;4781;48.776;9.200;2023-02-13T06:31:05;0.70;99.90
9486;DHT22;4781;48.776;9.200;2023-02-13T06:33:34;0.70;99.90
9486;DHT22;4781;48.776;9.200;2023-02-13T06:36:02;0.70;99.90
9486;DHT22;4781;48.776;9.200;2023-02-13T06:38:31;0.70;99.90
9486;DHT22;4781;48.776;9.200;2023-02-13T06:41:00;0.60;99.90
9486;DHT22;4781;48.776;9.200;2023-02-13T06:43:29;0.70;99.90
9486;DHT22;4781;48.776;9.200;2023-02-13T06:45:58;0.70;99.90
9486;DHT22;4781;48.776;9.200;2023-02-13T06:48:27;0.70;99.90
9486;DHT22;4781;48.776;9.200;2023-02-13T06:50:55;0.70;99.90
9486;DHT22;4781;48.776;9.200;2023-02-13T06:53:24;0.70;99.90
9486;DHT22;4781;48.776;9.200;2023-02-13T06:55:53;0.70;99.90
9486;DHT22;4781;48.776;9.200;2023-02-13T06:58:23;0.70;99.90
9486;DHT22;4781;48.776;9.200;2023-02-13T07:00:52;0.70;99.90
9486;DHT22;4781;48.776;9.200;2023-02-13T07:03:21;0.70;99.90
9486;DHT22;4781;48.776;9.200;2023-02-13T07:05:49;0.70;99.90
9486;DHT22;4781;48.776;9.200;2023-02-13T07:08:18;0.80;99.90
9486;DHT22;4781;48.776;9.200;2023-02-13T07:10:46;0.80;99.90
9486;DHT22;4781;48.776;9.200;2023-02-13T07:13:15;0.80;99.90
9486;DHT22;4781;48.776;9.200;2023-02-13T07:15:43;0.80;99.90
9486;DHT22;4781;48.776;9.200;2023-02-13T07:18:11;0.80;99.90
9486;DHT22;4781;48.776;9.200;2023-02-13T07:20:40;0.80;99.90
9486;DHT22;4781;48.776;9.200;2023-02-13T07:23:09;0.90;99.90
9486;DHT22;4781;48.776;9.200;2023-02-13T07:25:38;0.90;99.90
9486;DHT22;4781;48.776;9.200;2023-02-13T07:28:06;0.90;99.90
9486;DHT22;4781;48.776;9.200;2023-02-13T07:30:35;1.00;99.90
9486;DHT22;4781;48.776;9.200;2023-02-13T07:33:04;1.10;99.90
9486;DHT22;4781;48.776;9.200;2023-02-13T07:35:32;1.10;99.90
9486;DHT22;4781;48.776;9.200;2023-02-13T07:38:03;1.20;99.90
9486;DHT22;4781;48.776;9.200;2023-02-13T07:40:32;1.40;99.90
9486;DHT22;4781;48.776;9.200;2023-02-13T07:43:00;1.50;99.90
9486;DHT22;4781;48.776;9.200;2023-02-13T07:45:28;1.60;99.90
9486;DHT22;4781;48.776;9.200;2023-02-13T07:47:57;1.70;99.90
9486;DHT22;4781;48.776;9.200;2023-02-13T07:50:26;1.80;99.90
9486;DHT22;4781;48.776;9.200;2023-02-13T07:52:56;2.00;99.90
9486;DHT22;4781;48.776;9.200;2023-02-13T07:55:27;2.00;99.90
9486;DHT22;4781;48.776;9.200;2023-02-13T07:57:56;2.10;99.90
9486;DHT22;4781;48.776;9.200;2023-02-13T08:00:26;2.10;99.90
9486;DHT22;4781;48.776;9.200;2023-02-13T08:02:57;2.10;99.90
9486;DHT22;4781;48.776;9.200;2023-02-13T08:05:28;2.20;99.90
9486;DHT22;4781;48.776;9.200;2023-02-13T08:07:58;2.20;99.90
9486;DHT22;4781;48.776;9.200;2023-02-13T08:10:27;2.40;99.90
9486;DHT22;4781;48.776;9.200;2023-02-13T08:13:14;2.50;99.90
9486;DHT22;4781;48.776;9.200;2023-02-13T08:15:43;2.50;99.90
9486;DHT22;4781;48.776;9.200;2023-02-13T08:18:12;2.60;99.90
9486;DHT22;4781;48.776;9.200;2023-02-13T08:20:40;2.80;99.90
9486;DHT22;4781;48.776;9.200;2023-02-13T08:23:10;2.90;99.90
9486;DHT22;4781;48.776;9.200;2023-02-13T08:25:38;3.10;99.90
9486;DHT22;4781;48.776;9.200;2023-02-13T08:28:07;3.30;99.90
9486;DHT22;4781;48.776;9.200;2023-02-13T08:30:35;3.40;99.90
9486;DHT22;4781;48.776;9.200;2023-02-13T08:33:04;3.60;99.90
9486;DHT22;4781;48.776;9.200;2023-02-13T08:35:32;3.70;99.90
9486;DHT22;4781;48.776;9.200;2023-02-13T08:38:02;3.80;99.90
9486;DHT22;4781;48.776;9.200;2023-02-13T08:40:31;3.90;99.90
9486;DHT22;4781;48.776;9.200;2023-02-13T08:43:02;4.10;99.90
9486;DHT22;4781;48.776;9.200;2023-02-13T08:45:32;4.20;99.90
9486;DHT22;4781;48.776;9.200;2023-02-13T08:48:00;4.30;99.90
9486;DHT22;4781;48.776;9.200;2023-02-13T08:50:29;4.30;99.90
9486;DHT22;4781;48.776;9.200;2023-02-13T08:52:58;4.50;99.90
9486;DHT22;4781;48.776;9.200;2023-02-13T08:55:27;4.60;99.90
9486;DHT22;4781;48.776;9.200;2023-02-13T08:58:03;4.80;99.90
9486;DHT22;4781;48.776;9.200;2023-02-13T09:00:33;4.90;99.90
9486;DHT22;4781;48.776;9.200;2023-02-13T09:03:02;5.10;99.90
9486;DHT22;4781;48.776;9.200;2023-02-13T09:05:31;5.10;99.90
9486;DHT22;4781;48.776;9.200;2023-02-13T09:08:00;5.30;99.90
9486;DHT22;4781;48.776;9.200;2023-02-13T09:10:32;5.30;99.90
9486;DHT22;4781;48.776;9.200;2023-02-13T09:13:00;5.40;99.90
9486;DHT22;4781;48.776;9.200;2023-02-13T09:15:29;5.60;99.90
9486;DHT22;4781;48.776;9.200;2023-02-13T09:17:58;5.80;99.90
9486;DHT22;4781;48.776;9.200;2023-02-13T09:20:27;5.90;99.90
9486;DHT22;4781;48.776;9.200;2023-02-13T09:22:55;6.00;99.90
9486;DHT22;4781;48.776;9.200;2023-02-13T09:25:24;6.00;99.90
9486;DHT22;4781;48.776;9.200;2023-02-13T09:27:52;6.20;99.90
9486;DHT22;4781;48.776;9.200;2023-02-13T09:30:21;5.80;99.90
9486;DHT22;4781;48.776;9.200;2023-02-13T09:32:51;6.10;99.90
9486;DHT22;4781;48.776;9.200;2023-02-13T09:35:21;6.10;99.90
9486;DHT22;4781;48.776;9.200;2023-02-13T09:37:50;6.50;99.90
9486;DHT22;4781;48.776;9.200;2023-02-13T09:40:22;6.70;99.90
9486;DHT22;4781;48.776;9.200;2023-02-13T09:42:52;6.90;99.90
9486;DHT22;4781;48.776;9.200;2023-02-13T09:45:23;6.80;99.90
9486;DHT22;4781;48.776;9.200;2023-02-13T09:47:52;7.00;99.90
9486;DHT22;4781;48.776;9.200;2023-02-13T09:50:23;6.70;99.90
9486;DHT22;4781;48.776;9.200;2023-02-13T09:52:54;6.80;99.90
9486;DHT22;4781;48.776;9.200;2023-02-13T09:55:27;7.20;99.90
9486;DHT22;4781;48.776;9.200;2023-02-13T09:58:21;7.50;99.90
9486;DHT22;4781;48.776;9.200;2023-02-13T10:00:52;7.70;99.90
9486;DHT22;4781;48.776;9.200;2023-02-13T10:03:30;7.80;99.90
9486;DHT22;4781;48.776;9.200;2023-02-13T10:17:40;8.00;99.90
9486;DHT22;4781;48.776;9.200;2023-02-13T10:20:17;8.20;99.90
9486;DHT22;4781;48.776;9.200;2023-02-13T10:28:38;8.90;99.90
9486;DHT22;4781;48.776;9.200;2023-02-13T10:31:14;8.60;99.90
9486;DHT22;4781;48.776;9.200;2023-02-13T10:33:52;9.00;99.90
9486;DHT22;4781;48.776;9.200;2023-02-13T10:36:28;9.10;99.90
9486;DHT22;4781;48.776;9.200;2023-02-13T10:42:06;9.40;99.90
9486;DHT22;4781;48.776;9.200;2023-02-13T10:56:40;10.20;99.90
9486;DHT22;4781;48.776;9.200;2023-02-13T10:59:54;10.40;99.90
9486;DHT22;4781;48.776;9.200;2023-02-13T11:02:30;10.10;99.90
9486;DHT22;4781;48.776;9.200;2023-02-13T11:05:11;10.80;99.90
9486;DHT22;4781;48.776;9.200;2023-02-13T11:07:34;11.00;99.90
9486;DHT22;4781;48.776;9.200;2023-02-13T11:10:05;11.30;99.90
9486;DHT22;4781;48.776;9.200;2023-02-13T11:12:35;11.10;99.90
9486;DHT22;4781;48.776;9.200;2023-02-13T11:15:06;11.60;99.90
9486;DHT22;4781;48.776;9.200;2023-02-13T11:17:39;11.90;99.90
9486;DHT22;4781;48.776;9.200;2023-02-13T11:23:33;11.10;99.90
9486;DHT22;4781;48.776;9.200;2023-02-13T11:26:28;11.50;99.90
9486;DHT22;4781;48.776;9.200;2023-02-13T11:29:05;12.20;99.90
9486;DHT22;4781;48.776;9.200;2023-02-13T11:31:44;12.70;99.90
9486;DHT22;4781;48.776;9.200;2023-02-13T11:34:24;12.20;99.90
9486;DHT22;4781;48.776;9.200;2023-02-13T11:39:44;11.50;99.90
9486;DHT22;4781;48.776;9.200;2023-02-13T11:42:16;11.70;99.90
9486;DHT22;4781;48.776;9.200;2023-02-13T11:44:52;11.70;99.90
9486;DHT22;4781;48.776;9.200;2023-02-13T11:47:39;11.70;99.90
9486;DHT22;4781;48.776;9.200;2023-02-13T11:50:27;12.00;99.90
9486;DHT22;4781;48.776;9.200;2023-02-13T11:53:17;11.90;99.90
9486;DHT22;4781;48.776;9.200;2023-02-13T11:58:38;11.60;99.90
9486;DHT22;4781;48.776;9.200;2023-02-13T12:01:10;11.80;99.90
9486;DHT22;4781;48.776;9.200;2023-02-13T12:04:04;12.30;99.90
9486;DHT22;4781;48.776;9.200;2023-02-13T12:06:34;12.20;99.90
9486;DHT22;4781;48.776;9.200;2023-02-13T12:09:14;12.20;99.90
9486;DHT22;4781;48.776;9.200;2023-02-13T12:11:53;12.10;99.90
9486;DHT22;4781;48.776;9.200;2023-02-13T12:14:26;12.20;99.90
9486;DHT22;4781;48.776;9.200;2023-02-13T12:19:43;10.80;99.90
9486;DHT22;4781;48.776;9.200;2023-02-13T12:28:15;11.10;99.90
9486;DHT22;4781;48.776;9.200;2023-02-13T12:33:58;11.40;99.90
9486;DHT22;4781;48.776;9.200;2023-02-13T12:36:54;11.40;99.90
9486;DHT22;4781;48.776;9.200;2023-02-13T12:39:47;11.40;99.90
9486;DHT22;4781;48.776;9.200;2023-02-13T12:42:40;11.40;99.90
9486;DHT22;4781;48.776;9.200;2023-02-13T12:48:48;10.80;99.90
9486;DHT22;4781;48.776;9.200;2023-02-13T13:06:31;9.90;99.90
9486;DHT22;4781;48.776;9.200;2023-02-13T13:12:36;9.60;99.90
9486;DHT22;4781;48.776;9.200;2023-02-13T13:20:35;9.60;99.90
9486;DHT22;4781;48.776;9.200;2023-02-13T13:28:40;9.40;99.90
9486;DHT22;4781;48.776;9.200;2023-02-13T13:31:06;9.40;99.90
9486;DHT22;4781;48.776;9.200;2023-02-13T13:33:35;9.50;99.90
9486;DHT22;4781;48.776;9.200;2023-02-13T13:47:39;9.50;99.90
9486;DHT22;4781;48.776;9.200;2023-02-13T13:50:22;9.60;99.90
9486;DHT22;4781;48.776;9.200;2023-02-13T13:53:04;9.70;99.90
9486;DHT22;4781;48.776;9.200;2023-02-13T13:58:38;9.70;99.90
9486;DHT22;4781;48.776;9.200;2023-02-13T14:01:28;9.80;99.90
9486;DHT22;4781;48.776;9.200;2023-02-13T14:03:59;9.80;99.90
9486;DHT22;4781;48.776;9.200;2023-02-13T14:09:39;9.70;99.90
9486;DHT22;4781;48.776;9.200;2023-02-13T14:23:46;9.80;99.90
9486;DHT22;4781;48.776;9.200;2023-02-13T14:26:30;9.80;99.90
9486;DHT22;4781;48.776;9.200;2023-02-13T14:32:06;9.80;99.90
9486;DHT22;4781;48.776;9.200;2023-02-13T14:34:34;9.40;99.90
9486;DHT22;4781;48.776;9.200;2023-02-13T14:43:00;9.70;99.90
9486;DHT22;4781;48.776;9.200;2023-02-13T14:45:32;9.60;99.90
9486;DHT22;4781;48.776;9.200;2023-02-13T14:48:10;9.60;99.90
9486;DHT22;4781;48.776;9.200;2023-02-13T14:50:48;9.50;99.90
9486;DHT22;4781;48.776;9.200;2023-02-13T14:53:37;9.50;99.90
9486;DHT22;4781;48.776;9.200;2023-02-13T14:56:08;9.60;99.90
9486;DHT22;4781;48.776;9.200;2023-02-13T14:59:42;9.60;99.90
9486;DHT22;4781;48.776;9.200;2023-02-13T15:01:36;9.70;99.90
9486;DHT22;4781;48.776;9.200;2023-02-13T15:04:19;9.70;99.90
9486;DHT22;4781;48.776;9.200;2023-02-13T15:06:58;9.70;99.90
9486;DHT22;4781;48.776;9.200;2023-02-13T15:09:31;9.90;99.90
9486;DHT22;4781;48.776;9.200;2023-02-13T15:14:58;9.90;99.90
9486;DHT22;4781;48.776;9.200;2023-02-13T15:20:22;9.90;99.90
9486;DHT22;4781;48.776;9.200;2023-02-13T15:22:53;9.80;99.90
9486;DHT22;4781;48.776;9.200;2023-02-13T15:25:36;10.00;99.90
9486;DHT22;4781;48.776;9.200;2023-02-13T15:28:13;10.00;99.90
9486;DHT22;4781;48.776;9.200;2023-02-13T15:31:16;10.10;99.90
9486;DHT22;4781;48.776;9.200;2023-02-13T15:33:42;10.20;99.90
9486;DHT22;4781;48.776;9.200;2023-02-13T15:36:20;10.00;99.90
9486;DHT22;4781;48.776;9.200;2023-02-13T15:39:05;9.90;99.90
9486;DHT22;4781;48.776;9.200;2023-02-13T15:41:37;9.70;99.90
9486;DHT22;4781;48.776;9.200;2023-02-13T15:44:14;9.50;99.90
9486;DHT22;4781;48.776;9.200;2023-02-13T15:46:41;9.40;99.90
9486;DHT22;4781;48.776;9.200;2023-02-13T15:49:15;9.30;99.90
9486;DHT22;4781;48.776;9.200;2023-02-13T15:51:46;9.20;99.90
9486;DHT22;4781;48.776;9.200;2023-02-13T15:54:23;9.10;99.90
9486;DHT22;4781;48.776;9.200;2023-02-13T15:57:05;9.00;99.90
9486;DHT22;4781;48.776;9.200;2023-02-13T15:59:37;8.90;99.90
9486;DHT22;4781;48.776;9.200;2023-02-13T16:02:29;8.70;99.90
9486;DHT22;4781;48.776;9.200;2023-02-13T16:04:52;8.60;99.90
9486;DHT22;4781;48.776;9.200;2023-02-13T16:07:21;8.60;99.90
9486;DHT22;4781;48.776;9.200;2023-02-13T16:09:50;8.60;99.90
9486;DHT22;4781;48.776;9.200;2023-02-13T16:12:26;8.50;99.90
9486;DHT22;4781;48.776;9.200;2023-02-13T16:15:04;8.40;99.90
9486;DHT22;4781;48.776;9.200;2023-02-13T16:17:37;8.30;99.90
9486;DHT22;4781;48.776;9.200;2023-02-13T16:22:53;8.10;99.90
9486;DHT22;4781;48.776;9.200;2023-02-13T16:25:39;8.10;99.90
9486;DHT22;4781;48.776;9.200;2023-02-13T16:28:22;7.90;99.90
9486;DHT22;4781;48.776;9.200;2023-02-13T16:31:00;7.80;99.90
9486;DHT22;4781;48.776;9.200;2023-02-13T16:33:38;7.90;99.90
9486;DHT22;4781;48.776;9.200;2023-02-13T16:38:48;7.80;99.90
9486;DHT22;4781;48.776;9.200;2023-02-13T16:44:04;7.80;99.90
9486;DHT22;4781;48.776;9.200;2023-02-13T16:46:36;7.70;99.90
9486;DHT22;4781;48.776;9.200;2023-02-13T16:52:06;7.60;99.90
9486;DHT22;4781;48.776;9.200;2023-02-13T16:54:57;7.50;99.90
9486;DHT22;4781;48.776;9.200;2023-02-13T16:57:30;7.40;99.90
9486;DHT22;4781;48.776;9.200;2023-02-13T17:00:38;7.30;99.90
9486;DHT22;4781;48.776;9.200;2023-02-13T17:02:48;7.30;99.90
9486;DHT22;4781;48.776;9.200;2023-02-13T17:05:27;7.20;99.90
9486;DHT22;4781;48.776;9.200;2023-02-13T17:07:56;7.10;99.90
9486;DHT22;4781;48.776;9.200;2023-02-13T17:10:28;6.90;99.90
9486;DHT22;4781;48.776;9.200;2023-02-13T17:15:55;6.70;99.90
9486;DHT22;4781;48.776;9.200;2023-02-13T17:18:27;6.50;99.90
9486;DHT22;4781;48.776;9.200;2023-02-13T17:20:55;6.50;99.90
9486;DHT22;4781;48.776;9.200;2023-02-13T17:23:24;6.30;99.90
9486;DHT22;4781;48.776;9.200;2023-02-13T17:25:53;6.20;99.90
9486;DHT22;4781;48.776;9.200;2023-02-13T17:28:26;6.10;99.90
9486;DHT22;4781;48.776;9.200;2023-02-13T17:30:57;6.00;99.90
9486;DHT22;4781;48.776;9.200;2023-02-13T17:33:28;5.80;99.90
9486;DHT22;4781;48.776;9.200;2023-02-13T17:35:59;5.50;99.90
9486;DHT22;4781;48.776;9.200;2023-02-13T17:38:28;5.40;99.90
9486;DHT22;4781;48.776;9.200;2023-02-13T17:40:56;5.40;99.90
9486;DHT22;4781;48.776;9.200;2023-02-13T17:43:25;5.10;99.90
9486;DHT22;4781;48.776;9.200;2023-02-13T17:45:54;5.10;99.90
9486;DHT22;4781;48.776;9.200;2023-02-13T17:48:22;5.20;99.90
9486;DHT22;4781;48.776;9.200;2023-02-13T17:50:51;5.20;99.90
9486;DHT22;4781;48.776;9.200;2023-02-13T17:53:27;5.00;99.90
9486;DHT22;4781;48.776;9.200;2023-02-13T17:56:15;4.80;99.90
9486;DHT22;4781;48.776;9.200;2023-02-13T17:58:44;4.80;99.90
9486;DHT22;4781;48.776;9.200;2023-02-13T18:01:12;4.80;99.90
9486;DHT22;4781;48.776;9.200;2023-02-13T18:03:41;4.80;99.90
9486;DHT22;4781;48.776;9.200;2023-02-13T18:06:12;4.80;99.90
9486;DHT22;4781;48.776;9.200;2023-02-13T18:08:41;4.80;99.90
9486;DHT22;4781;48.776;9.200;2023-02-13T18:11:10;4.80;99.90
9486;DHT22;4781;48.776;9.200;2023-02-13T18:13:38;4.80;99.90
9486;DHT22;4781;48.776;9.200;2023-02-13T18:16:09;4.70;99.90
9486;DHT22;4781;48.776;9.200;2023-02-13T18:18:37;4.70;99.90
9486;DHT22;4781;48.776;9.200;2023-02-13T18:21:06;4.70;99.90
9486;DHT22;4781;48.776;9.200;2023-02-13T18:23:34;4.70;99.90
9486;DHT22;4781;48.776;9.200;2023-02-13T18:26:05;4.70;99.90
9486;DHT22;4781;48.776;9.200;2023-02-13T18:28:34;4.50;99.90
9486;DHT22;4781;48.776;9.200;2023-02-13T18:31:03;4.50;99.90
9486;DHT22;4781;48.776;9.200;2023-02-13T18:33:31;4.50;99.90
9486;DHT22;4781;48.776;9.200;2023-02-13T18:36:01;4.40;99.90
9486;DHT22;4781;48.776;9.200;2023-02-13T18:38:30;4.40;99.90
9486;DHT22;4781;48.776;9.200;2023-02-13T18:40:58;4.40;99.90
9486;DHT22;4781;48.776;9.200;2023-02-13T18:43:26;4.30;99.90
9486;DHT22;4781;48.776;9.200;2023-02-13T18:45:55;4.20;99.90
9486;DHT22;4781;48.776;9.200;2023-02-13T18:48:23;4.20;99.90
9486;DHT22;4781;48.776;9.200;2023-02-13T18:50:51;4.10;99.90
9486;DHT22;4781;48.776;9.200;2023-02-13T18:53:20;4.10;99.90
9486;DHT22;4781;48.776;9.200;2023-02-13T18:55:48;4.00;99.90
9486;DHT22;4781;48.776;9.200;2023-02-13T18:58:17;4.00;99.90
9486;DHT22;4781;48.776;9.200;2023-02-13T19:00:45;3.90;99.90
9486;DHT22;4781;48.776;9.200;2023-02-13T19:03:13;3.90;99.90
9486;DHT22;4781;48.776;9.200;2023-02-13T19:05:42;3.80;99.90
9486;DHT22;4781;48.776;9.200;2023-02-13T19:08:11;3.80;99.90
9486;DHT22;4781;48.776;9.200;2023-02-13T19:10:40;3.70;99.90
9486;DHT22;4781;48.776;9.200;2023-02-13T19:13:08;3.70;99.90
9486;DHT22;4781;48.776;9.200;2023-02-13T19:15:37;3.70;99.90
9486;DHT22;4781;48.776;9.200;2023-02-13T19:18:05;3.60;99.90
9486;DHT22;4781;48.776;9.200;2023-02-13T19:20:34;3.50;99.90
9486;DHT22;4781;48.776;9.200;2023-02-13T19:23:03;3.50;99.90
9486;DHT22;4781;48.776;9.200;2023-02-13T19:25:36;3.40;99.90
9486;DHT22;4781;48.776;9.200;2023-02-13T19:28:05;3.20;99.90
9486;DHT22;4781;48.776;9.200;2023-02-13T19:30:33;3.10;99.90
9486;DHT22;4781;48.776;9.200;2023-02-13T19:33:02;3.20;99.90
9486;DHT22;4781;48.776;9.200;2023-02-13T19:35:30;3.10;99.90
9486;DHT22;4781;48.776;9.200;2023-02-13T19:37:59;3.10;99.90
9486;DHT22;4781;48.776;9.200;2023-02-13T19:40:27;3.10;99.90
9486;DHT22;4781;48.776;9.200;2023-02-13T19:42:56;3.00;99.90
9486;DHT22;4781;48.776;9.200;2023-02-13T19:45:24;2.90;99.90
9486;DHT22;4781;48.776;9.200;2023-02-13T19:47:53;2.90;99.90
9486;DHT22;4781;48.776;9.200;2023-02-13T19:50:21;2.90;99.90
9486;DHT22;4781;48.776;9.200;2023-02-13T19:52:50;2.90;99.90